sensor_id;sensor_type;location;lat;lon;timestamp;P1;durP1;ratioP1;P2;durP2;ratioP2
10230;SDS011;62604;49.432;8.680;2023-07-13T00:01:30;3.38;;;3.17;;
10230;SDS011;62604;49.432;8.680;2023-07-13T00:03:58;3.33;;;3.13;;
10230;SDS011;62604;49.432;8.680;2023-07-13T00:06:26;3.33;;;3.13;;
10230;SDS011;62604;49.432;8.680;2023-07-13T00:08:56;3.47;;;3.28;;
10230;SDS011;62604;49.432;8.680;2023-07-13T00:11:23;4.40;;;3.20;;
10230;SDS011;62604;49.432;8.680;2023-07-13T00:13:50;3.30;;;3.10;;
10230;SDS011;62604;49.432;8.680;2023-07-13T00:16:17;3.30;;;3.10;;
10230;SDS011;62604;49.432;8.680;2023-07-13T00:18:45;3.58;;;3.15;;
10230;SDS011;62604;49.432;8.680;2023-07-13T00:21:12;3.10;;;2.90;;
10230;SDS011;62604;49.432;8.680;2023-07-13T00:23:40;3.17;;;2.90;;
10230;SDS011;62604;49.432;8.680;2023-07-13T00:26:10;3.10;;;2.90;;
10230;SDS011;62604;49.432;8.680;2023-07-13T00:28:38;3.28;;;3.00;;
10230;SDS011;62604;49.432;8.680;2023-07-13T00:31:06;3.10;;;3.00;;
10230;SDS011;62604;49.432;8.680;2023-07-13T00:33:34;3.42;;;3.22;;
10230;SDS011;62604;49.432;8.680;2023-07-13T00:36:01;3.50;;;3.20;;
10230;SDS011;62604;49.432;8.680;2023-07-13T00:38:28;3.90;;;3.60;;
10230;SDS011;62604;49.432;8.680;2023-07-13T00:40:55;3.53;;;3.22;;
10230;SDS011;62604;49.432;8.680;2023-07-13T00:43:26;3.60;;;3.30;;
10230;SDS011;62604;49.432;8.680;2023-07-13T00:48:50;5.93;;;3.15;;
10230;SDS011;62604;49.432;8.680;2023-07-13T00:51:21;3.30;;;3.10;;
10230;SDS011;62604;49.432;8.680;2023-07-13T00:53:51;3.53;;;3.33;;
10230;SDS011;62604;49.432;8.680;2023-07-13T00:56:21;3.33;;;3.13;;
10230;SDS011;62604;49.432;8.680;2023-07-13T00:58:50;3.42;;;3.22;;
10230;SDS011;62604;49.432;8.680;2023-07-13T01:01:17;3.40;;;3.20;;
10230;SDS011;62604;49.432;8.680;2023-07-13T01:03:44;3.42;;;3.13;;
10230;SDS011;62604;49.432;8.680;2023-07-13T01:06:11;3.63;;;3.30;;
10230;SDS011;62604;49.432;8.680;2023-07-13T01:08:39;3.60;;;3.35;;
10230;SDS011;62604;49.432;8.680;2023-07-13T01:11:06;3.80;;;3.40;;
10230;SDS011;62604;49.432;8.680;2023-07-13T01:13:34;3.50;;;3.30;;
10230;SDS011;62604;49.432;8.680;2023-07-13T01:16:04;3.63;;;3.20;;
10230;SDS011;62604;49.432;8.680;2023-07-13T01:18:39;3.63;;;3.42;;
10230;SDS011;62604;49.432;8.680;2023-07-13T01:21:07;3.33;;;3.13;;
10230;SDS011;62604;49.432;8.680;2023-07-13T01:23:34;3.40;;;3.20;;
10230;SDS011;62604;49.432;8.680;2023-07-13T01:26:01;3.60;;;3.30;;
10230;SDS011;62604;49.432;8.680;2023-07-13T01:28:28;3.40;;;3.10;;
10230;SDS011;62604;49.432;8.680;2023-07-13T01:30:57;3.78;;;3.58;;
10230;SDS011;62604;49.432;8.680;2023-07-13T01:33:25;3.67;;;3.40;;
10230;SDS011;62604;49.432;8.680;2023-07-13T01:35:52;3.10;;;2.90;;
10230;SDS011;62604;49.432;8.680;2023-07-13T01:38:21;3.88;;;3.58;;
10230;SDS011;62604;49.432;8.680;2023-07-13T01:40:48;3.42;;;3.22;;
10230;SDS011;62604;49.432;8.680;2023-07-13T01:43:16;3.38;;;3.08;;
10230;SDS011;62604;49.432;8.680;2023-07-13T01:45:43;4.00;;;3.70;;
10230;SDS011;62604;49.432;8.680;2023-07-13T01:48:10;3.50;;;3.30;;
10230;SDS011;62604;49.432;8.680;2023-07-13T01:50:38;3.85;;;3.55;;
10230;SDS011;62604;49.432;8.680;2023-07-13T01:53:05;3.97;;;3.67;;
10230;SDS011;62604;49.432;8.680;2023-07-13T01:55:33;3.40;;;3.20;;
10230;SDS011;62604;49.432;8.680;2023-07-13T01:58:01;4.13;;;3.83;;
10230;SDS011;62604;49.432;8.680;2023-07-13T02:00:28;4.63;;;3.33;;
10230;SDS011;62604;49.432;8.680;2023-07-13T02:02:55;3.72;;;3.42;;
10230;SDS011;62604;49.432;8.680;2023-07-13T02:05:22;2.40;;;2.20;;
10230;SDS011;62604;49.432;8.680;2023-07-13T02:07:49;3.70;;;3.50;;
10230;SDS011;62604;49.432;8.680;2023-07-13T02:10:16;3.92;;;3.40;;
10230;SDS011;62604;49.432;8.680;2023-07-13T02:12:45;4.00;;;3.70;;
10230;SDS011;62604;49.432;8.680;2023-07-13T02:15:12;3.58;;;3.38;;
10230;SDS011;62604;49.432;8.680;2023-07-13T02:17:39;5.50;;;3.50;;
10230;SDS011;62604;49.432;8.680;2023-07-13T02:20:06;3.35;;;3.15;;
10230;SDS011;62604;49.432;8.680;2023-07-13T02:22:34;4.70;;;3.22;;
10230;SDS011;62604;49.432;8.680;2023-07-13T02:25:01;5.18;;;3.33;;
10230;SDS011;62604;49.432;8.680;2023-07-13T02:27:28;3.50;;;3.30;;
10230;SDS011;62604;49.432;8.680;2023-07-13T02:29:57;3.65;;;3.42;;
10230;SDS011;62604;49.432;8.680;2023-07-13T02:32:23;3.85;;;3.53;;
10230;SDS011;62604;49.432;8.680;2023-07-13T02:34:51;4.05;;;3.75;;
10230;SDS011;62604;49.432;8.680;2023-07-13T02:37:18;3.60;;;3.22;;
10230;SDS011;62604;49.432;8.680;2023-07-13T02:39:46;4.65;;;3.60;;
10230;SDS011;62604;49.432;8.680;2023-07-13T02:42:13;3.67;;;3.47;;
10230;SDS011;62604;49.432;8.680;2023-07-13T02:44:40;3.90;;;3.60;;
10230;SDS011;62604;49.432;8.680;2023-07-13T02:47:08;3.92;;;3.60;;
10230;SDS011;62604;49.432;8.680;2023-07-13T02:49:35;3.97;;;3.78;;
10230;SDS011;62604;49.432;8.680;2023-07-13T02:52:03;5.80;;;3.60;;
10230;SDS011;62604;49.432;8.680;2023-07-13T02:54:30;4.03;;;3.70;;
10230;SDS011;62604;49.432;8.680;2023-07-13T02:56:57;4.00;;;3.70;;
10230;SDS011;62604;49.432;8.680;2023-07-13T02:59:24;3.93;;;3.57;;
10230;SDS011;62604;49.432;8.680;2023-07-13T03:01:51;3.58;;;3.38;;
10230;SDS011;62604;49.432;8.680;2023-07-13T03:04:20;4.45;;;3.97;;
10230;SDS011;62604;49.432;8.680;2023-07-13T03:06:47;4.17;;;3.87;;
10230;SDS011;62604;49.432;8.680;2023-07-13T03:09:14;3.85;;;3.55;;
10230;SDS011;62604;49.432;8.680;2023-07-13T03:11:41;3.85;;;3.58;;
10230;SDS011;62604;49.432;8.680;2023-07-13T03:14:08;4.17;;;3.77;;
10230;SDS011;62604;49.432;8.680;2023-07-13T03:16:34;4.05;;;3.75;;
10230;SDS011;62604;49.432;8.680;2023-07-13T03:19:01;5.40;;;3.80;;
10230;SDS011;62604;49.432;8.680;2023-07-13T03:21:30;5.93;;;3.50;;
10230;SDS011;62604;49.432;8.680;2023-07-13T03:23:57;4.85;;;4.20;;
10230;SDS011;62604;49.432;8.680;2023-07-13T03:26:24;3.63;;;3.42;;
10230;SDS011;62604;49.432;8.680;2023-07-13T03:28:51;3.63;;;3.43;;
10230;SDS011;62604;49.432;8.680;2023-07-13T03:31:18;3.75;;;3.50;;
10230;SDS011;62604;49.432;8.680;2023-07-13T03:33:46;3.80;;;3.50;;
10230;SDS011;62604;49.432;8.680;2023-07-13T03:36:15;4.28;;;3.60;;
10230;SDS011;62604;49.432;8.680;2023-07-13T03:38:47;4.00;;;3.50;;
10230;SDS011;62604;49.432;8.680;2023-07-13T03:41:15;3.75;;;3.42;;
10230;SDS011;62604;49.432;8.680;2023-07-13T03:43:42;4.00;;;3.70;;
10230;SDS011;62604;49.432;8.680;2023-07-13T03:46:09;3.55;;;3.35;;
10230;SDS011;62604;49.432;8.680;2023-07-13T03:48:36;3.80;;;3.60;;
10230;SDS011;62604;49.432;8.680;2023-07-13T03:51:05;3.70;;;3.50;;
10230;SDS011;62604;49.432;8.680;2023-07-13T03:53:31;3.93;;;3.60;;
10230;SDS011;62604;49.432;8.680;2023-07-13T03:56:00;6.28;;;3.50;;
10230;SDS011;62604;49.432;8.680;2023-07-13T03:58:28;3.85;;;3.65;;
10230;SDS011;62604;49.432;8.680;2023-07-13T04:00:57;3.83;;;3.42;;
10230;SDS011;62604;49.432;8.680;2023-07-13T04:03:24;3.95;;;3.65;;
10230;SDS011;62604;49.432;8.680;2023-07-13T04:05:52;4.00;;;3.60;;
10230;SDS011;62604;49.432;8.680;2023-07-13T04:08:20;4.47;;;3.87;;
10230;SDS011;62604;49.432;8.680;2023-07-13T04:10:47;3.70;;;3.50;;
10230;SDS011;62604;49.432;8.680;2023-07-13T04:13:15;3.87;;;3.67;;
10230;SDS011;62604;49.432;8.680;2023-07-13T04:15:42;3.80;;;3.50;;
10230;SDS011;62604;49.432;8.680;2023-07-13T04:18:09;3.50;;;3.20;;
10230;SDS011;62604;49.432;8.680;2023-07-13T04:20:36;3.35;;;3.15;;
10230;SDS011;62604;49.432;8.680;2023-07-13T04:23:03;3.23;;;3.03;;
10230;SDS011;62604;49.432;8.680;2023-07-13T04:25:30;3.55;;;3.35;;
10230;SDS011;62604;49.432;8.680;2023-07-13T04:27:57;3.70;;;3.37;;
10230;SDS011;62604;49.432;8.680;2023-07-13T04:30:25;3.47;;;3.27;;
10230;SDS011;62604;49.432;8.680;2023-07-13T04:32:52;4.20;;;3.80;;
10230;SDS011;62604;49.432;8.680;2023-07-13T04:35:19;3.40;;;3.20;;
10230;SDS011;62604;49.432;8.680;2023-07-13T04:37:47;3.78;;;3.47;;
10230;SDS011;62604;49.432;8.680;2023-07-13T04:40:15;3.92;;;3.50;;
10230;SDS011;62604;49.432;8.680;2023-07-13T04:42:43;3.70;;;3.50;;
10230;SDS011;62604;49.432;8.680;2023-07-13T04:45:11;3.40;;;3.20;;
10230;SDS011;62604;49.432;8.680;2023-07-13T04:47:40;3.87;;;3.60;;
10230;SDS011;62604;49.432;8.680;2023-07-13T04:50:08;4.53;;;3.58;;
10230;SDS011;62604;49.432;8.680;2023-07-13T04:52:36;3.78;;;3.25;;
10230;SDS011;62604;49.432;8.680;2023-07-13T04:55:03;3.90;;;3.60;;
10230;SDS011;62604;49.432;8.680;2023-07-13T04:57:31;3.30;;;3.10;;
10230;SDS011;62604;49.432;8.680;2023-07-13T04:59:58;5.10;;;3.53;;
10230;SDS011;62604;49.432;8.680;2023-07-13T05:02:26;3.30;;;3.10;;
10230;SDS011;62604;49.432;8.680;2023-07-13T05:04:54;3.17;;;2.97;;
10230;SDS011;62604;49.432;8.680;2023-07-13T05:07:21;4.25;;;3.28;;
10230;SDS011;62604;49.432;8.680;2023-07-13T05:09:48;3.78;;;3.47;;
10230;SDS011;62604;49.432;8.680;2023-07-13T05:12:15;4.00;;;3.35;;
10230;SDS011;62604;49.432;8.680;2023-07-13T05:14:42;3.53;;;3.22;;
10230;SDS011;62604;49.432;8.680;2023-07-13T05:17:10;3.40;;;3.20;;
10230;SDS011;62604;49.432;8.680;2023-07-13T05:19:37;3.80;;;3.45;;
10230;SDS011;62604;49.432;8.680;2023-07-13T05:22:05;3.28;;;3.08;;
10230;SDS011;62604;49.432;8.680;2023-07-13T05:24:33;4.35;;;3.65;;
10230;SDS011;62604;49.432;8.680;2023-07-13T05:27:00;3.40;;;3.10;;
10230;SDS011;62604;49.432;8.680;2023-07-13T05:29:27;3.30;;;3.10;;
10230;SDS011;62604;49.432;8.680;2023-07-13T05:31:54;4.57;;;3.40;;
10230;SDS011;62604;49.432;8.680;2023-07-13T05:34:21;4.05;;;3.05;;
10230;SDS011;62604;49.432;8.680;2023-07-13T05:36:49;3.13;;;2.95;;
10230;SDS011;62604;49.432;8.680;2023-07-13T05:39:17;3.58;;;3.35;;
10230;SDS011;62604;49.432;8.680;2023-07-13T05:41:44;4.90;;;3.10;;
10230;SDS011;62604;49.432;8.680;2023-07-13T05:44:11;3.83;;;3.40;;
10230;SDS011;62604;49.432;8.680;2023-07-13T05:46:38;3.78;;;3.45;;
10230;SDS011;62604;49.432;8.680;2023-07-13T05:49:05;3.92;;;3.63;;
10230;SDS011;62604;49.432;8.680;2023-07-13T05:51:32;3.40;;;3.10;;
10230;SDS011;62604;49.432;8.680;2023-07-13T05:53:59;4.70;;;3.42;;
10230;SDS011;62604;49.432;8.680;2023-07-13T05:56:27;3.63;;;3.42;;
10230;SDS011;62604;49.432;8.680;2023-07-13T05:58:54;3.65;;;3.10;;
10230;SDS011;62604;49.432;8.680;2023-07-13T06:01:22;5.50;;;3.58;;
10230;SDS011;62604;49.432;8.680;2023-07-13T06:03:49;3.72;;;3.40;;
10230;SDS011;62604;49.432;8.680;2023-07-13T06:06:16;3.38;;;3.17;;
10230;SDS011;62604;49.432;8.680;2023-07-13T06:08:43;3.60;;;3.30;;
10230;SDS011;62604;49.432;8.680;2023-07-13T06:11:12;6.13;;;3.58;;
10230;SDS011;62604;49.432;8.680;2023-07-13T06:13:43;3.83;;;3.40;;
10230;SDS011;62604;49.432;8.680;2023-07-13T06:16:10;3.70;;;3.50;;
10230;SDS011;62604;49.432;8.680;2023-07-13T06:18:40;3.47;;;3.20;;
10230;SDS011;62604;49.432;8.680;2023-07-13T06:21:07;3.83;;;3.45;;
10230;SDS011;62604;49.432;8.680;2023-07-13T06:23:35;4.20;;;3.83;;
10230;SDS011;62604;49.432;8.680;2023-07-13T06:26:03;4.50;;;3.30;;
10230;SDS011;62604;49.432;8.680;2023-07-13T06:28:30;5.93;;;3.60;;
10230;SDS011;62604;49.432;8.680;2023-07-13T06:30:59;5.32;;;3.80;;
10230;SDS011;62604;49.432;8.680;2023-07-13T06:33:27;3.75;;;3.47;;
10230;SDS011;62604;49.432;8.680;2023-07-13T06:35:54;4.20;;;3.25;;
10230;SDS011;62604;49.432;8.680;2023-07-13T06:38:21;3.90;;;3.60;;
10230;SDS011;62604;49.432;8.680;2023-07-13T06:40:48;3.70;;;3.50;;
10230;SDS011;62604;49.432;8.680;2023-07-13T06:43:15;3.45;;;3.25;;
10230;SDS011;62604;49.432;8.680;2023-07-13T06:45:43;3.90;;;3.60;;
10230;SDS011;62604;49.432;8.680;2023-07-13T06:48:14;3.65;;;3.45;;
10230;SDS011;62604;49.432;8.680;2023-07-13T06:50:41;5.32;;;3.85;;
10230;SDS011;62604;49.432;8.680;2023-07-13T06:53:08;3.47;;;3.28;;
10230;SDS011;62604;49.432;8.680;2023-07-13T06:55:36;3.40;;;3.20;;
10230;SDS011;62604;49.432;8.680;2023-07-13T06:58:02;3.97;;;3.58;;
10230;SDS011;62604;49.432;8.680;2023-07-13T07:00:29;3.67;;;3.47;;
10230;SDS011;62604;49.432;8.680;2023-07-13T07:02:56;3.90;;;3.40;;
10230;SDS011;62604;49.432;8.680;2023-07-13T07:05:25;3.65;;;3.10;;
10230;SDS011;62604;49.432;8.680;2023-07-13T07:07:53;3.90;;;3.50;;
10230;SDS011;62604;49.432;8.680;2023-07-13T07:10:21;5.47;;;3.50;;
10230;SDS011;62604;49.432;8.680;2023-07-13T07:12:48;4.07;;;3.70;;
10230;SDS011;62604;49.432;8.680;2023-07-13T07:15:15;4.07;;;3.35;;
10230;SDS011;62604;49.432;8.680;2023-07-13T07:17:43;3.53;;;3.22;;
10230;SDS011;62604;49.432;8.680;2023-07-13T07:20:10;3.88;;;3.60;;
10230;SDS011;62604;49.432;8.680;2023-07-13T07:22:39;3.65;;;3.35;;
10230;SDS011;62604;49.432;8.680;2023-07-13T07:25:06;3.67;;;3.38;;
10230;SDS011;62604;49.432;8.680;2023-07-13T07:27:33;4.55;;;2.47;;
10230;SDS011;62604;49.432;8.680;2023-07-13T07:30:00;3.00;;;2.80;;
10230;SDS011;62604;49.432;8.680;2023-07-13T07:32:28;3.95;;;2.78;;
10230;SDS011;62604;49.432;8.680;2023-07-13T07:34:55;3.13;;;2.83;;
10230;SDS011;62604;49.432;8.680;2023-07-13T07:37:22;3.90;;;3.60;;
10230;SDS011;62604;49.432;8.680;2023-07-13T07:39:51;3.58;;;3.30;;
10230;SDS011;62604;49.432;8.680;2023-07-13T07:42:18;3.83;;;3.47;;
10230;SDS011;62604;49.432;8.680;2023-07-13T07:44:45;3.15;;;2.95;;
10230;SDS011;62604;49.432;8.680;2023-07-13T07:47:12;2.90;;;2.67;;
10230;SDS011;62604;49.432;8.680;2023-07-13T07:49:39;2.75;;;2.55;;
10230;SDS011;62604;49.432;8.680;2023-07-13T07:52:06;3.05;;;2.78;;
10230;SDS011;62604;49.432;8.680;2023-07-13T07:54:34;3.00;;;2.80;;
10230;SDS011;62604;49.432;8.680;2023-07-13T07:57:02;3.03;;;2.83;;
10230;SDS011;62604;49.432;8.680;2023-07-13T07:59:29;4.38;;;3.10;;
10230;SDS011;62604;49.432;8.680;2023-07-13T08:01:56;3.35;;;3.05;;
10230;SDS011;62604;49.432;8.680;2023-07-13T08:04:23;2.95;;;2.78;;
10230;SDS011;62604;49.432;8.680;2023-07-13T08:06:50;4.32;;;2.90;;
10230;SDS011;62604;49.432;8.680;2023-07-13T08:09:18;3.25;;;3.00;;
10230;SDS011;62604;49.432;8.680;2023-07-13T08:11:44;3.20;;;3.00;;
10230;SDS011;62604;49.432;8.680;2023-07-13T08:14:13;3.00;;;2.80;;
10230;SDS011;62604;49.432;8.680;2023-07-13T08:16:41;9.00;;;4.15;;
10230;SDS011;62604;49.432;8.680;2023-07-13T08:19:08;3.50;;;3.00;;
10230;SDS011;62604;49.432;8.680;2023-07-13T08:21:36;3.10;;;2.90;;
10230;SDS011;62604;49.432;8.680;2023-07-13T08:24:03;4.47;;;2.80;;
10230;SDS011;62604;49.432;8.680;2023-07-13T08:26:30;3.30;;;3.00;;
10230;SDS011;62604;49.432;8.680;2023-07-13T08:28:57;3.40;;;3.10;;
10230;SDS011;62604;49.432;8.680;2023-07-13T08:31:25;3.25;;;3.05;;
10230;SDS011;62604;49.432;8.680;2023-07-13T08:33:52;3.47;;;3.17;;
10230;SDS011;62604;49.432;8.680;2023-07-13T08:36:19;4.35;;;3.47;;
10230;SDS011;62604;49.432;8.680;2023-07-13T08:38:46;3.33;;;3.03;;
10230;SDS011;62604;49.432;8.680;2023-07-13T08:41:14;5.22;;;3.20;;
10230;SDS011;62604;49.432;8.680;2023-07-13T08:43:43;3.25;;;3.05;;
10230;SDS011;62604;49.432;8.680;2023-07-13T08:46:14;5.75;;;3.33;;
10230;SDS011;62604;49.432;8.680;2023-07-13T08:48:46;3.78;;;3.00;;
10230;SDS011;62604;49.432;8.680;2023-07-13T08:51:24;3.83;;;3.53;;
10230;SDS011;62604;49.432;8.680;2023-07-13T08:53:58;3.63;;;3.17;;
10230;SDS011;62604;49.432;8.680;2023-07-13T08:56:28;3.55;;;3.25;;
10230;SDS011;62604;49.432;8.680;2023-07-13T08:58:57;9.23;;;3.22;;
10230;SDS011;62604;49.432;8.680;2023-07-13T09:01:28;3.42;;;3.10;;
10230;SDS011;62604;49.432;8.680;2023-07-13T09:04:02;3.50;;;3.30;;
10230;SDS011;62604;49.432;8.680;2023-07-13T09:06:36;3.58;;;3.20;;
10230;SDS011;62604;49.432;8.680;2023-07-13T09:09:10;4.03;;;3.25;;
10230;SDS011;62604;49.432;8.680;2023-07-13T09:11:56;3.67;;;3.38;;
10230;SDS011;62604;49.432;8.680;2023-07-13T09:14:33;3.67;;;3.17;;
10230;SDS011;62604;49.432;8.680;2023-07-13T09:17:10;3.40;;;3.17;;
10230;SDS011;62604;49.432;8.680;2023-07-13T09:19:43;6.72;;;3.35;;
10230;SDS011;62604;49.432;8.680;2023-07-13T09:22:15;5.47;;;3.28;;
10230;SDS011;62604;49.432;8.680;2023-07-13T09:24:49;3.50;;;3.20;;
10230;SDS011;62604;49.432;8.680;2023-07-13T09:27:21;3.20;;;3.00;;
10230;SDS011;62604;49.432;8.680;2023-07-13T09:29:52;3.10;;;2.90;;
10230;SDS011;62604;49.432;8.680;2023-07-13T09:32:24;3.10;;;2.90;;
10230;SDS011;62604;49.432;8.680;2023-07-13T09:34:55;3.10;;;2.90;;
10230;SDS011;62604;49.432;8.680;2023-07-13T09:37:23;3.00;;;2.80;;
10230;SDS011;62604;49.432;8.680;2023-07-13T09:39:56;7.70;;;3.17;;
10230;SDS011;62604;49.432;8.680;2023-07-13T09:42:25;3.03;;;2.83;;
10230;SDS011;62604;49.432;8.680;2023-07-13T09:44:54;3.20;;;2.90;;
10230;SDS011;62604;49.432;8.680;2023-07-13T09:47:23;3.67;;;3.20;;
10230;SDS011;62604;49.432;8.680;2023-07-13T09:49:56;3.88;;;3.17;;
10230;SDS011;62604;49.432;8.680;2023-07-13T09:52:25;3.60;;;3.00;;
10230;SDS011;62604;49.432;8.680;2023-07-13T09:54:53;3.20;;;3.00;;
10230;SDS011;62604;49.432;8.680;2023-07-13T09:57:24;6.45;;;3.03;;
10230;SDS011;62604;49.432;8.680;2023-07-13T09:59:53;3.42;;;3.13;;
10230;SDS011;62604;49.432;8.680;2023-07-13T10:02:24;3.40;;;3.10;;
10230;SDS011;62604;49.432;8.680;2023-07-13T10:04:57;2.72;;;2.58;;
10230;SDS011;62604;49.432;8.680;2023-07-13T10:07:26;3.67;;;3.22;;
10230;SDS011;62604;49.432;8.680;2023-07-13T10:09:53;3.30;;;3.10;;
10230;SDS011;62604;49.432;8.680;2023-07-13T10:12:20;3.28;;;3.08;;
10230;SDS011;62604;49.432;8.680;2023-07-13T10:14:50;3.88;;;3.10;;
10230;SDS011;62604;49.432;8.680;2023-07-13T10:17:24;5.03;;;3.05;;
10230;SDS011;62604;49.432;8.680;2023-07-13T10:19:57;3.10;;;2.90;;
10230;SDS011;62604;49.432;8.680;2023-07-13T10:22:27;3.45;;;3.15;;
10230;SDS011;62604;49.432;8.680;2023-07-13T10:25:02;3.30;;;3.00;;
10230;SDS011;62604;49.432;8.680;2023-07-13T10:27:39;3.88;;;2.75;;
10230;SDS011;62604;49.432;8.680;2023-07-13T10:30:09;4.90;;;2.83;;
10230;SDS011;62604;49.432;8.680;2023-07-13T10:32:40;3.13;;;2.92;;
10230;SDS011;62604;49.432;8.680;2023-07-13T10:35:10;3.30;;;3.00;;
10230;SDS011;62604;49.432;8.680;2023-07-13T10:37:42;3.10;;;2.72;;
10230;SDS011;62604;49.432;8.680;2023-07-13T10:40:14;3.03;;;2.83;;
10230;SDS011;62604;49.432;8.680;2023-07-13T10:42:46;3.20;;;3.00;;
10230;SDS011;62604;49.432;8.680;2023-07-13T10:45:17;3.15;;;2.90;;
10230;SDS011;62604;49.432;8.680;2023-07-13T10:47:46;3.88;;;3.08;;
10230;SDS011;62604;49.432;8.680;2023-07-13T10:50:17;3.20;;;2.90;;
10230;SDS011;62604;49.432;8.680;2023-07-13T10:52:47;3.53;;;3.22;;
10230;SDS011;62604;49.432;8.680;2023-07-13T10:55:31;3.45;;;3.03;;
10230;SDS011;62604;49.432;8.680;2023-07-13T10:58:01;3.47;;;3.17;;
10230;SDS011;62604;49.432;8.680;2023-07-13T11:00:30;4.43;;;3.05;;
10230;SDS011;62604;49.432;8.680;2023-07-13T11:03:00;3.15;;;2.85;;
10230;SDS011;62604;49.432;8.680;2023-07-13T11:05:30;4.03;;;2.83;;
10230;SDS011;62604;49.432;8.680;2023-07-13T11:08:03;3.08;;;2.88;;
10230;SDS011;62604;49.432;8.680;2023-07-13T11:10:50;3.35;;;3.15;;
10230;SDS011;62604;49.432;8.680;2023-07-13T11:19:39;3.30;;;3.00;;
10230;SDS011;62604;49.432;8.680;2023-07-13T11:22:13;3.30;;;3.10;;
10230;SDS011;62604;49.432;8.680;2023-07-13T11:24:48;3.67;;;3.33;;
10230;SDS011;62604;49.432;8.680;2023-07-13T11:27:34;3.53;;;3.25;;
10230;SDS011;62604;49.432;8.680;2023-07-13T11:30:24;3.53;;;2.78;;
10230;SDS011;62604;49.432;8.680;2023-07-13T11:33:07;4.53;;;2.90;;
10230;SDS011;62604;49.432;8.680;2023-07-13T11:35:41;5.75;;;2.90;;
10230;SDS011;62604;49.432;8.680;2023-07-13T11:38:18;2.58;;;2.47;;
10230;SDS011;62604;49.432;8.680;2023-07-13T11:40:47;2.75;;;2.65;;
10230;SDS011;62604;49.432;8.680;2023-07-13T11:43:16;2.83;;;2.72;;
10230;SDS011;62604;49.432;8.680;2023-07-13T11:45:43;3.20;;;3.00;;
10230;SDS011;62604;49.432;8.680;2023-07-13T11:48:17;9.38;;;2.80;;
10230;SDS011;62604;49.432;8.680;2023-07-13T11:50:49;3.17;;;2.97;;
10230;SDS011;62604;49.432;8.680;2023-07-13T11:53:23;2.80;;;2.63;;
10230;SDS011;62604;49.432;8.680;2023-07-13T11:55:53;3.17;;;2.80;;
10230;SDS011;62604;49.432;8.680;2023-07-13T11:58:21;3.00;;;2.80;;
10230;SDS011;62604;49.432;8.680;2023-07-13T12:00:50;2.97;;;2.78;;
10230;SDS011;62604;49.432;8.680;2023-07-13T12:03:20;3.38;;;3.10;;
10230;SDS011;62604;49.432;8.680;2023-07-13T12:05:56;3.30;;;3.10;;
10230;SDS011;62604;49.432;8.680;2023-07-13T12:08:26;3.00;;;2.80;;
10230;SDS011;62604;49.432;8.680;2023-07-13T12:10:56;3.42;;;3.13;;
10230;SDS011;62604;49.432;8.680;2023-07-13T12:13:26;3.10;;;2.90;;
10230;SDS011;62604;49.432;8.680;2023-07-13T12:15:54;4.35;;;2.92;;
10230;SDS011;62604;49.432;8.680;2023-07-13T12:18:23;3.30;;;3.10;;
10230;SDS011;62604;49.432;8.680;2023-07-13T12:20:57;3.17;;;2.90;;
10230;SDS011;62604;49.432;8.680;2023-07-13T12:23:28;3.17;;;2.90;;
10230;SDS011;62604;49.432;8.680;2023-07-13T12:25:56;2.97;;;2.78;;
10230;SDS011;62604;49.432;8.680;2023-07-13T12:28:30;3.10;;;2.80;;
10230;SDS011;62604;49.432;8.680;2023-07-13T12:30:58;3.00;;;2.80;;
10230;SDS011;62604;49.432;8.680;2023-07-13T12:33:29;3.38;;;2.88;;
10230;SDS011;62604;49.432;8.680;2023-07-13T12:35:57;3.80;;;2.88;;
10230;SDS011;62604;49.432;8.680;2023-07-13T12:38:29;5.38;;;3.03;;
10230;SDS011;62604;49.432;8.680;2023-07-13T12:40:57;6.00;;;3.08;;
10230;SDS011;62604;49.432;8.680;2023-07-13T12:43:25;2.90;;;2.70;;
10230;SDS011;62604;49.432;8.680;2023-07-13T12:45:56;4.45;;;2.80;;
10230;SDS011;62604;49.432;8.680;2023-07-13T12:48:25;2.97;;;2.78;;
10230;SDS011;62604;49.432;8.680;2023-07-13T12:50:53;3.13;;;2.92;;
10230;SDS011;62604;49.432;8.680;2023-07-13T12:53:22;3.25;;;3.05;;
10230;SDS011;62604;49.432;8.680;2023-07-13T12:55:58;3.10;;;2.80;;
10230;SDS011;62604;49.432;8.680;2023-07-13T12:58:29;3.10;;;2.90;;
10230;SDS011;62604;49.432;8.680;2023-07-13T13:01:01;2.75;;;2.65;;
10230;SDS011;62604;49.432;8.680;2023-07-13T13:03:31;3.28;;;3.08;;
10230;SDS011;62604;49.432;8.680;2023-07-13T13:06:00;2.90;;;2.70;;
10230;SDS011;62604;49.432;8.680;2023-07-13T13:08:30;2.90;;;2.70;;
10230;SDS011;62604;49.432;8.680;2023-07-13T13:10:58;2.88;;;2.72;;
10230;SDS011;62604;49.432;8.680;2023-07-13T13:13:25;2.78;;;2.60;;
10230;SDS011;62604;49.432;8.680;2023-07-13T13:15:54;3.20;;;2.90;;
10230;SDS011;62604;49.432;8.680;2023-07-13T13:18:23;2.97;;;2.78;;
10230;SDS011;62604;49.432;8.680;2023-07-13T13:20:51;2.70;;;2.60;;
10230;SDS011;62604;49.432;8.680;2023-07-13T13:23:19;2.72;;;2.53;;
10230;SDS011;62604;49.432;8.680;2023-07-13T13:25:48;2.63;;;2.53;;
10230;SDS011;62604;49.432;8.680;2023-07-13T13:28:18;2.80;;;2.60;;
10230;SDS011;62604;49.432;8.680;2023-07-13T13:30:47;2.90;;;2.70;;
10230;SDS011;62604;49.432;8.680;2023-07-13T13:33:16;2.72;;;2.60;;
10230;SDS011;62604;49.432;8.680;2023-07-13T13:35:44;4.70;;;3.00;;
10230;SDS011;62604;49.432;8.680;2023-07-13T13:38:12;3.08;;;2.88;;
10230;SDS011;62604;49.432;8.680;2023-07-13T13:40:42;2.90;;;2.70;;
10230;SDS011;62604;49.432;8.680;2023-07-13T13:43:16;4.20;;;2.97;;
10230;SDS011;62604;49.432;8.680;2023-07-13T13:45:45;2.78;;;2.58;;
10230;SDS011;62604;49.432;8.680;2023-07-13T13:48:17;3.13;;;2.92;;
10230;SDS011;62604;49.432;8.680;2023-07-13T13:50:45;2.95;;;2.67;;
10230;SDS011;62604;49.432;8.680;2023-07-13T13:53:13;2.90;;;2.60;;
10230;SDS011;62604;49.432;8.680;2023-07-13T13:55:40;2.80;;;2.70;;
10230;SDS011;62604;49.432;8.680;2023-07-13T13:58:08;3.78;;;2.78;;
10230;SDS011;62604;49.432;8.680;2023-07-13T14:00:37;2.90;;;2.72;;
10230;SDS011;62604;49.432;8.680;2023-07-13T14:03:04;2.78;;;2.58;;
10230;SDS011;62604;49.432;8.680;2023-07-13T14:05:34;4.00;;;2.72;;
10230;SDS011;62604;49.432;8.680;2023-07-13T14:08:01;6.00;;;2.80;;
10230;SDS011;62604;49.432;8.680;2023-07-13T14:10:28;2.70;;;2.60;;
10230;SDS011;62604;49.432;8.680;2023-07-13T14:12:56;6.35;;;2.65;;
10230;SDS011;62604;49.432;8.680;2023-07-13T14:15:24;3.03;;;2.70;;
10230;SDS011;62604;49.432;8.680;2023-07-13T14:17:54;3.00;;;2.80;;
10230;SDS011;62604;49.432;8.680;2023-07-13T14:20:23;4.47;;;2.83;;
10230;SDS011;62604;49.432;8.680;2023-07-13T14:22:51;2.92;;;2.65;;
10230;SDS011;62604;49.432;8.680;2023-07-13T14:25:20;3.25;;;2.50;;
10230;SDS011;62604;49.432;8.680;2023-07-13T14:27:49;3.00;;;2.50;;
10230;SDS011;62604;49.432;8.680;2023-07-13T14:30:21;2.88;;;2.67;;
10230;SDS011;62604;49.432;8.680;2023-07-13T14:32:48;2.85;;;2.65;;
10230;SDS011;62604;49.432;8.680;2023-07-13T14:35:17;2.92;;;2.70;;
10230;SDS011;62604;49.432;8.680;2023-07-13T14:37:46;2.60;;;2.50;;
10230;SDS011;62604;49.432;8.680;2023-07-13T14:40:14;2.83;;;2.63;;
10230;SDS011;62604;49.432;8.680;2023-07-13T14:42:41;3.78;;;2.63;;
10230;SDS011;62604;49.432;8.680;2023-07-13T14:45:12;3.42;;;2.80;;
10230;SDS011;62604;49.432;8.680;2023-07-13T14:47:40;3.58;;;2.80;;
10230;SDS011;62604;49.432;8.680;2023-07-13T14:50:11;4.13;;;3.10;;
10230;SDS011;62604;49.432;8.680;2023-07-13T14:52:43;2.85;;;2.65;;
10230;SDS011;62604;49.432;8.680;2023-07-13T14:55:11;3.20;;;2.90;;
10230;SDS011;62604;49.432;8.680;2023-07-13T14:57:40;3.22;;;2.92;;
10230;SDS011;62604;49.432;8.680;2023-07-13T15:00:12;3.33;;;3.03;;
10230;SDS011;62604;49.432;8.680;2023-07-13T15:02:40;5.95;;;2.83;;
10230;SDS011;62604;49.432;8.680;2023-07-13T15:05:13;2.90;;;2.70;;
10230;SDS011;62604;49.432;8.680;2023-07-13T15:07:43;4.95;;;2.88;;